Time;durP1;ratioP1;P1;durP2;ratioP2;P2;SDS_P1;SDS_P2;PMS_P1;PMS_P2;Temp;Humidity;BMP_temperature;BMP_pressure;BME280_temperature;BME280_humidity;BME280_pressure;Samples;Min_cycle;Max_cycle;Signal;HPM_P1;HPM_P2
2022/01/04 00:01:59;;;;;;;1.97;0.90;;;;;;;10.39;82.53;97164.53;5055966;28;20285;-73
2022/01/04 00:04:25;;;;;;;1.47;0.70;;;;;;;10.43;82.22;97165.69;5055627;28;20621;-73
2022/01/04 00:06:53;;;;;;;1.77;0.70;;;;;;;10.44;82.36;97156.66;5055807;28;20221;-73
2022/01/04 00:09:20;;;;;;;1.07;0.70;;;;;;;10.42;82.43;97142.81;5055934;28;20500;-73
2022/01/04 00:11:59;;;;;;;0.70;0.70;;;;;;;10.42;83.04;97156.09;5055650;28;20196;-73
2022/01/04 00:14:25;;;;;;;4.03;0.80;;;;;;;10.48;83.26;97133.88;5055991;28;20259;-73
2022/01/04 00:16:55;;;;;;;0.83;0.80;;;;;;;10.46;82.90;97138.63;5055855;28;20588;-73
2022/01/04 00:19:22;;;;;;;3.40;1.00;;;;;;;10.34;83.75;97136.03;5058469;28;20200;-73
2022/01/04 00:21:48;;;;;;;2.50;0.90;;;;;;;10.41;83.52;97135.91;5059530;28;20308;-73
2022/01/04 00:24:15;;;;;;;2.17;0.90;;;;;;;10.29;84.44;97128.00;5059456;28;20198;-73
2022/01/04 00:26:41;;;;;;;1.57;0.83;;;;;;;10.39;84.03;97122.03;5059146;28;20639;-73
2022/01/04 00:29:07;;;;;;;1.27;0.70;;;;;;;10.36;84.18;97118.00;5059618;28;20211;-73
2022/01/04 00:31:34;;;;;;;1.70;0.77;;;;;;;10.36;83.98;97119.88;5059523;28;20241;-73
2022/01/04 00:34:00;;;;;;;1.47;0.80;;;;;;;10.43;83.46;97115.19;5059390;28;20216;-73
2022/01/04 00:36:26;;;;;;;0.70;0.70;;;;;;;10.38;84.12;97113.28;5059123;28;20217;-73
2022/01/04 00:38:53;;;;;;;2.50;0.90;;;;;;;10.43;83.98;97112.53;5059420;28;20196;-73
2022/01/04 00:41:19;;;;;;;0.90;0.73;;;;;;;10.33;84.71;97105.19;5059267;28;20209;-73
2022/01/04 00:43:46;;;;;;;1.30;0.70;;;;;;;10.36;84.42;97103.94;5059320;28;20209;-73
2022/01/04 00:46:16;;;;;;;1.27;0.80;;;;;;;10.34;84.32;97093.53;5059130;28;20315;-73
2022/01/04 00:51:28;;;;;;;1.77;0.80;;;;;;;10.24;85.20;97085.41;5059249;28;20215;-73
2022/01/04 00:53:54;;;;;;;1.40;0.80;;;;;;;10.21;85.21;97069.13;5058809;28;20201;-73
2022/01/04 00:56:20;;;;;;;1.23;0.83;;;;;;;10.22;85.53;97074.19;5058911;28;20227;-73
2022/01/04 00:58:47;;;;;;;1.53;0.97;;;;;;;10.09;86.08;97069.19;5058741;28;20600;-73
2022/01/04 01:01:13;;;;;;;1.80;0.70;;;;;;;10.13;86.19;97067.66;5058553;28;20508;-73
2022/01/04 01:03:41;;;;;;;0.90;0.57;;;;;;;10.16;85.77;97071.69;5058962;28;20194;-73
2022/01/04 01:06:09;;;;;;;3.60;1.10;;;;;;;10.08;86.67;97059.63;5058714;28;20531;-73
2022/01/04 01:08:35;;;;;;;1.10;0.70;;;;;;;10.08;86.89;97045.53;5058853;28;20271;-73
2022/01/04 01:11:04;;;;;;;2.27;0.80;;;;;;;10.08;86.79;97043.69;5058557;28;20198;-73
2022/01/04 01:13:30;;;;;;;1.13;0.90;;;;;;;10.18;86.25;97037.75;5058534;28;20217;-73
2022/01/04 01:15:57;;;;;;;1.97;0.77;;;;;;;10.21;85.73;97029.28;5058979;28;20213;-73
2022/01/04 01:18:23;;;;;;;1.47;0.80;;;;;;;10.13;86.76;97022.53;5058619;28;20201;-73
2022/01/04 01:20:50;;;;;;;1.77;1.10;;;;;;;10.17;86.44;97020.19;5058493;28;20193;-73
2022/01/04 01:23:18;;;;;;;2.23;0.87;;;;;;;10.04;87.50;97025.78;5058280;28;20185;-73
2022/01/04 01:25:44;;;;;;;1.73;0.80;;;;;;;10.02;87.73;97020.72;5058140;28;20229;-73
2022/01/04 01:28:11;;;;;;;0.73;0.60;;;;;;;10.07;87.94;97017.38;5058204;28;20194;-73
2022/01/04 01:30:40;;;;;;;1.33;0.80;;;;;;;10.07;88.32;97010.22;5056630;28;20190;-73
2022/01/04 01:33:06;;;;;;;0.70;0.70;;;;;;;10.08;88.31;96998.53;5058217;28;20189;-73
2022/01/04 01:35:33;;;;;;;0.87;0.70;;;;;;;10.09;88.54;96999.38;5058257;28;20209;-73
2022/01/04 01:38:01;;;;;;;0.60;0.60;;;;;;;10.04;88.51;96997.41;5058198;28;20247;-73
2022/01/04 01:40:28;;;;;;;1.70;1.00;;;;;;;9.96;89.33;96989.03;5057992;28;20603;-73
2022/01/04 01:42:55;;;;;;;1.70;0.87;;;;;;;10.01;89.10;96979.28;5057804;28;20213;-73
2022/01/04 01:45:23;;;;;;;1.30;0.80;;;;;;;9.98;89.71;96971.00;5058033;28;20218;-73
2022/01/04 01:47:51;;;;;;;2.57;0.87;;;;;;;9.93;90.32;96960.28;5057822;28;20500;-73
2022/01/04 01:50:20;;;;;;;1.00;0.90;;;;;;;9.91;90.44;96954.44;5058087;28;20512;-73
2022/01/04 01:52:49;;;;;;;2.17;0.80;;;;;;;9.96;90.35;96941.25;5058029;28;20217;-73
2022/01/04 01:55:19;;;;;;;1.20;0.90;;;;;;;9.83;90.73;96933.59;5057985;28;20197;-73
2022/01/04 01:57:47;;;;;;;3.07;0.97;;;;;;;9.69;91.64;96932.31;5057926;28;20186;-73
2022/01/04 02:00:17;;;;;;;1.27;0.90;;;;;;;9.67;92.16;96931.72;5057483;28;20600;-73
2022/01/04 02:02:44;;;;;;;0.90;0.80;;;;;;;9.68;92.22;96917.44;5057759;28;20202;-73
2022/01/04 02:05:11;;;;;;;2.40;0.77;;;;;;;9.56;92.74;96917.47;5057373;28;20527;-73
2022/01/04 02:07:40;;;;;;;1.50;0.97;;;;;;;9.57;93.04;96915.63;5057375;28;20260;-73
2022/01/04 02:10:09;;;;;;;1.50;1.10;;;;;;;9.54;93.36;96905.50;5057371;28;20209;-73
2022/01/04 02:12:47;;;;;;;1.83;1.00;;;;;;;9.54;93.36;96905.50;5057625;28;20201;-73
2022/01/04 02:15:18;;;;;;;1.20;1.10;;;;;;;9.61;92.87;96899.00;5057254;28;20185;-73
2022/01/04 02:17:45;;;;;;;1.40;0.90;;;;;;;9.60;93.08;96891.28;5057249;28;20196;-73
2022/01/04 02:20:13;;;;;;;1.63;1.00;;;;;;;9.61;92.99;96890.22;5057106;28;20243;-73
2022/01/04 02:22:40;;;;;;;0.90;0.80;;;;;;;9.60;92.87;96889.41;5057410;28;20332;-73
2022/01/04 02:25:07;;;;;;;1.63;0.90;;;;;;;9.61;93.01;96891.06;5057224;28;20247;-73
2022/01/04 02:27:35;;;;;;;2.13;1.00;;;;;;;9.65;93.23;96883.41;5056899;28;20221;-73
2022/01/04 02:30:06;;;;;;;1.33;0.90;;;;;;;9.66;93.06;96869.09;5056990;28;20197;-73
2022/01/04 02:32:32;;;;;;;1.10;0.90;;;;;;;9.64;92.98;96857.91;5057445;28;20186;-73
2022/01/04 02:34:59;;;;;;;1.77;0.97;;;;;;;9.68;92.42;96854.53;5056904;28;20198;-73
2022/01/04 02:37:28;;;;;;;1.00;1.00;;;;;;;9.66;92.79;96848.69;5056798;28;20257;-73
2022/01/04 02:39:55;;;;;;;1.27;0.90;;;;;;;9.70;92.29;96846.34;5057130;28;20197;-73
2022/01/04 02:42:23;;;;;;;1.13;0.90;;;;;;;9.68;92.28;96835.94;5056577;28;20520;-73
2022/01/04 02:44:50;;;;;;;1.50;1.37;;;;;;;9.75;92.29;96826.00;5056704;28;20603;-73
2022/01/04 02:47:17;;;;;;;1.20;1.10;;;;;;;9.71;92.10;96816.09;5056632;28;20651;-73
2022/01/04 02:49:45;;;;;;;1.93;1.00;;;;;;;9.65;92.15;96795.84;5056657;28;20212;-73
2022/01/04 02:52:11;;;;;;;1.57;1.20;;;;;;;9.72;91.94;96791.97;5056620;28;20255;-73
2022/01/04 02:54:38;;;;;;;3.27;1.00;;;;;;;9.70;91.47;96793.25;5056952;28;20196;-73
2022/01/04 02:57:05;;;;;;;1.53;1.00;;;;;;;9.70;91.76;96780.00;5056458;28;20223;-73
2022/01/04 02:59:31;;;;;;;1.50;1.10;;;;;;;9.77;91.04;96773.47;5056875;28;20488;-73
2022/01/04 03:01:58;;;;;;;1.60;1.07;;;;;;;9.82;90.88;96767.44;5056754;28;20197;-73
2022/01/04 03:04:24;;;;;;;1.60;1.00;;;;;;;9.82;90.85;96768.22;5056937;28;20229;-73
2022/01/04 03:06:51;;;;;;;1.97;1.10;;;;;;;9.79;91.19;96766.06;5056517;28;20228;-73
2022/01/04 03:09:18;;;;;;;1.20;1.10;;;;;;;9.77;91.38;96762.84;5056733;28;20200;-73
2022/01/04 03:11:44;;;;;;;1.20;1.10;;;;;;;9.87;90.95;96762.97;5056369;28;20193;-73
2022/01/04 03:14:11;;;;;;;1.50;1.10;;;;;;;9.75;91.79;96753.53;5056594;28;20302;-73
2022/01/04 03:16:37;;;;;;;2.00;1.20;;;;;;;9.68;93.01;96758.22;5056544;28;20272;-73
2022/01/04 03:19:06;;;;;;;1.20;1.10;;;;;;;9.67;93.54;96751.28;5056226;28;20615;-73
2022/01/04 03:21:37;;;;;;;1.57;1.10;;;;;;;9.64;94.48;96744.63;5056451;28;20201;-73
2022/01/04 03:24:06;;;;;;;1.27;1.17;;;;;;;9.65;93.49;96745.44;5056478;28;20197;-73
2022/01/04 03:26:34;;;;;;;1.83;1.27;;;;;;;9.66;93.36;96739.88;5056002;28;20221;-73
2022/01/04 03:29:01;;;;;;;1.93;1.30;;;;;;;9.80;92.46;96732.34;5056317;28;20263;-73
2022/01/04 03:31:30;;;;;;;2.47;1.53;;;;;;;9.94;91.22;96725.63;5056042;28;20265;-73
2022/01/04 03:33:57;;;;;;;1.70;1.20;;;;;;;10.09;89.93;96728.53;5055792;28;20268;-73
2022/01/04 03:36:25;;;;;;;1.30;1.20;;;;;;;10.20;89.05;96723.09;5055518;28;20224;-73
2022/01/04 03:38:55;;;;;;;2.27;1.13;;;;;;;10.26;89.76;96711.44;5055630;28;20281;-73
2022/01/04 03:41:24;;;;;;;1.10;1.00;;;;;;;10.32;88.12;96709.66;5055270;28;20216;-73
2022/01/04 03:43:51;;;;;;;0.90;0.90;;;;;;;10.36;87.49;96703.59;5055487;28;20220;-73
2022/01/04 03:46:19;;;;;;;1.07;0.93;;;;;;;10.35;88.34;96695.88;5055525;28;20231;-73
2022/01/04 03:48:46;;;;;;;3.90;1.23;;;;;;;10.23;90.06;96687.25;5055833;28;20197;-73
2022/01/04 03:51:13;;;;;;;1.33;1.23;;;;;;;10.22;90.17;96675.00;5055611;28;20283;-74
2022/01/04 03:53:40;;;;;;;0.93;0.90;;;;;;;10.29;89.49;96667.66;5057333;28;20185;-74
2022/01/04 03:56:07;;;;;;;1.23;1.00;;;;;;;10.36;88.13;96660.31;5059302;28;20224;-73
2022/01/04 03:58:34;;;;;;;1.17;0.80;;;;;;;10.40;87.84;96659.53;5059502;28;20189;-73
2022/01/04 04:01:01;;;;;;;1.17;0.90;;;;;;;10.38;88.18;96660.84;5059376;28;20209;-73
2022/01/04 04:03:27;;;;;;;1.13;0.90;;;;;;;10.42;87.39;96656.63;5059592;28;20276;-73
2022/01/04 04:05:54;;;;;;;0.83;0.80;;;;;;;10.42;87.73;96651.31;5058840;28;20228;-73
2022/01/04 04:08:21;;;;;;;1.17;0.83;;;;;;;10.50;87.85;96648.22;5059380;28;20212;-73
2022/01/04 04:10:47;;;;;;;1.80;0.97;;;;;;;10.51;87.29;96641.84;5059000;28;20209;-73
2022/01/04 04:13:14;;;;;;;0.67;0.67;;;;;;;10.53;87.16;96634.41;5059162;28;20197;-73
2022/01/04 04:15:40;;;;;;;0.80;0.70;;;;;;;10.61;86.42;96629.44;5058747;28;20662;-73
2022/01/04 04:18:10;;;;;;;1.13;1.00;;;;;;;10.72;85.94;96627.66;5058999;28;20212;-73
2022/01/04 04:20:39;;;;;;;1.17;0.87;;;;;;;10.70;86.43;96627.13;5058674;28;20200;-73
2022/01/04 04:23:07;;;;;;;2.20;0.90;;;;;;;10.62;87.54;96614.28;5058775;28;20209;-73
2022/01/04 04:25:34;;;;;;;0.67;0.67;;;;;;;10.59;87.50;96609.50;5058474;28;20213;-73
2022/01/04 04:28:01;;;;;;;0.70;0.70;;;;;;;10.64;87.08;96591.72;5058355;28;20639;-73
2022/01/04 04:30:28;;;;;;;1.63;0.77;;;;;;;10.55;88.60;96598.56;5058480;28;20608;-73
2022/01/04 04:32:54;;;;;;;0.70;0.70;;;;;;;10.57;88.52;96587.69;5058718;28;20201;-73
2022/01/04 04:35:21;;;;;;;1.70;0.80;;;;;;;10.50;90.02;96590.53;5058841;28;20216;-73
2022/01/04 04:37:48;;;;;;;0.87;0.77;;;;;;;10.46;89.96;96600.06;5058422;28;20492;-73
2022/01/04 04:40:15;;;;;;;0.60;0.60;;;;;;;10.33;92.30;96583.75;5058329;28;20292;-72
2022/01/04 04:42:42;;;;;;;0.93;0.90;;;;;;;10.40;91.73;96587.81;5058152;28;20213;-73
2022/01/04 04:45:09;;;;;;;1.47;0.70;;;;;;;10.47;90.77;96576.97;5058186;28;20204;-73
2022/01/04 04:47:37;;;;;;;1.97;0.90;;;;;;;10.39;91.97;96570.28;5058016;28;20240;-73
2022/01/04 04:50:04;;;;;;;1.00;0.70;;;;;;;10.54;90.01;96567.72;5057698;28;20199;-73
2022/01/04 04:52:31;;;;;;;1.23;0.70;;;;;;;10.46;91.74;96575.38;5058162;28;20205;-72
2022/01/04 04:54:59;;;;;;;1.03;0.80;;;;;;;10.41;92.43;96562.84;5058178;28;20201;-73
2022/01/04 04:57:25;;;;;;;1.73;0.83;;;;;;;10.53;90.68;96560.00;5058189;28;20217;-73
2022/01/04 04:59:51;;;;;;;1.30;0.70;;;;;;;10.50;90.80;96550.69;5058230;28;20204;-73
2022/01/04 05:02:18;;;;;;;0.77;0.77;;;;;;;10.47;91.65;96555.72;5058097;28;20205;-73
2022/01/04 05:04:44;;;;;;;2.70;0.90;;;;;;;10.40;92.90;96544.50;5058017;28;20201;-73
2022/01/04 05:07:10;;;;;;;1.37;0.80;;;;;;;10.32;93.73;96537.81;5057837;28;20236;-73
2022/01/04 05:09:37;;;;;;;0.70;0.70;;;;;;;10.44;92.49;96541.09;5057449;28;20634;-73
2022/01/04 05:12:05;;;;;;;1.00;0.90;;;;;;;10.34;94.52;96534.91;5057584;28;20190;-72
2022/01/04 05:14:33;;;;;;;1.70;0.93;;;;;;;10.25;95.08;96534.56;5057272;28;20259;-73
2022/01/04 05:17:00;;;;;;;1.30;0.80;;;;;;;10.24;95.63;96530.31;5057164;28;20220;-73
2022/01/04 05:19:26;;;;;;;1.07;0.83;;;;;;;10.29;95.06;96526.88;5057473;28;20197;-73
2022/01/04 05:21:53;;;;;;;1.27;0.80;;;;;;;10.28;96.03;96525.28;5057556;28;20204;-73
2022/01/04 05:24:19;;;;;;;1.83;0.80;;;;;;;10.50;92.99;96531.31;5057772;28;20193;-73
2022/01/04 05:26:46;;;;;;;1.27;0.90;;;;;;;10.49;93.63;96527.03;5057075;28;20225;-73
2022/01/04 05:29:12;;;;;;;0.70;0.70;;;;;;;10.31;95.91;96522.09;5057063;28;20197;-73
2022/01/04 05:31:39;;;;;;;0.97;0.73;;;;;;;10.23;97.13;96512.75;5057405;28;20197;-73
2022/01/04 05:34:06;;;;;;;1.50;1.00;;;;;;;10.26;96.86;96506.13;5057229;28;20208;-73
2022/01/04 05:36:32;;;;;;;1.10;0.87;;;;;;;10.15;99.04;96504.47;5057069;28;20220;-73
2022/01/04 05:39:00;;;;;;;0.70;0.70;;;;;;;10.11;98.66;96496.22;5056872;28;20609;-72
2022/01/04 05:41:27;;;;;;;1.33;0.80;;;;;;;10.12;98.84;96476.56;5056741;28;20589;-72
2022/01/04 05:43:53;;;;;;;0.80;0.80;;;;;;;10.16;98.51;96467.06;5056810;28;20232;-72
2022/01/04 05:46:20;;;;;;;1.23;0.90;;;;;;;10.21;98.05;96467.09;5056074;28;20221;-72
2022/01/04 05:48:46;;;;;;;1.07;0.80;;;;;;;10.09;100.00;96463.00;5056898;28;20201;-72
2022/01/04 05:51:13;;;;;;;1.63;0.90;;;;;;;10.02;100.00;96457.88;5056977;28;20197;-72
2022/01/04 05:53:40;;;;;;;1.37;0.90;;;;;;;10.09;100.00;96452.41;5056542;28;20652;-72
2022/01/04 05:56:07;;;;;;;0.87;0.87;;;;;;;10.02;100.00;96454.41;5056385;28;20257;-72
2022/01/04 05:58:34;;;;;;;0.93;0.80;;;;;;;10.14;99.78;96441.81;5056829;28;20189;-72
2022/01/04 06:01:00;;;;;;;1.67;0.80;;;;;;;10.28;98.29;96453.59;5056704;28;20190;-73
2022/01/04 06:03:27;;;;;;;1.87;0.93;;;;;;;10.19;99.88;96439.97;5056457;28;20205;-73
2022/01/04 06:05:54;;;;;;;0.90;0.80;;;;;;;10.33;98.26;96437.69;5055774;28;20221;-72
2022/01/04 06:08:22;;;;;;;0.93;0.80;;;;;;;10.23;100.00;96440.28;5056946;28;20209;-72
2022/01/04 06:10:51;;;;;;;1.50;0.80;;;;;;;10.32;98.93;96436.09;5057264;28;20291;-73
2022/01/04 06:16:03;;;;;;;1.00;0.87;;;;;;;10.15;100.00;96424.81;5055548;28;20251;-72
2022/01/04 06:18:30;;;;;;;0.70;0.70;;;;;;;10.22;100.00;96420.06;5055994;28;20291;-73
2022/01/04 06:20:57;;;;;;;0.90;0.90;;;;;;;10.21;100.00;96413.16;5056450;28;20205;-72
2022/01/04 06:23:24;;;;;;;1.00;0.90;;;;;;;10.14;100.00;96407.28;5056221;28;20186;-72
2022/01/04 06:25:53;;;;;;;0.80;0.80;;;;;;;10.04;100.00;96397.38;5056266;28;20229;-72
2022/01/04 06:28:21;;;;;;;2.30;0.80;;;;;;;10.08;100.00;96395.81;5056242;28;20691;-72
2022/01/04 06:30:50;;;;;;;1.10;1.00;;;;;;;10.19;100.00;96396.69;5056218;28;20197;-72
2022/01/04 06:33:23;;;;;;;0.90;0.80;;;;;;;10.15;100.00;96398.25;5057032;28;20508;-73
2022/01/04 06:35:51;;;;;;;1.00;0.90;;;;;;;10.09;100.00;96393.97;5055991;28;20224;-72
2022/01/04 06:38:17;;;;;;;0.83;0.83;;;;;;;10.06;100.00;96384.69;5056086;28;20205;-72
2022/01/04 06:40:44;;;;;;;1.60;0.90;;;;;;;10.02;100.00;96380.91;5056572;28;20658;-72
2022/01/04 06:43:11;;;;;;;1.73;1.10;;;;;;;10.01;100.00;96389.13;5055779;28;20223;-72
2022/01/04 06:45:38;;;;;;;2.03;1.00;;;;;;;10.02;100.00;96380.91;5055871;28;20221;-73
2022/01/04 06:48:05;;;;;;;1.60;1.07;;;;;;;10.00;100.00;96380.34;5055768;28;20208;-73
2022/01/04 06:50:32;;;;;;;1.47;0.90;;;;;;;10.00;100.00;96379.56;5055843;28;20212;-73
2022/01/04 06:52:58;;;;;;;2.60;1.00;;;;;;;9.95;100.00;96374.19;5055801;28;20201;-73
2022/01/04 06:55:25;;;;;;;1.17;0.80;;;;;;;9.97;100.00;96380.06;5055323;28;20201;-73
2022/01/04 06:57:52;;;;;;;0.90;0.90;;;;;;;10.04;100.00;96375.31;5055594;28;20205;-72
2022/01/04 07:00:18;;;;;;;0.93;0.90;;;;;;;9.98;100.00;96377.16;5055376;28;20256;-72
2022/01/04 07:02:45;;;;;;;0.93;0.83;;;;;;;9.96;100.00;96373.16;5055168;28;20197;-72
2022/01/04 07:05:11;;;;;;;1.03;0.93;;;;;;;9.94;100.00;96370.75;5055285;28;20232;-72
2022/01/04 07:07:38;;;;;;;2.40;1.20;;;;;;;9.96;100.00;96373.16;5055131;28;20238;-72
2022/01/04 07:10:04;;;;;;;3.27;1.30;;;;;;;9.94;100.00;96367.28;5055310;28;20197;-72
2022/01/04 07:12:31;;;;;;;2.30;1.17;;;;;;;9.93;100.00;96355.06;5055045;28;20589;-72
2022/01/04 07:14:58;;;;;;;1.30;1.20;;;;;;;9.93;100.00;96349.75;5054931;28;20296;-72
2022/01/04 07:17:24;;;;;;;1.37;1.00;;;;;;;10.05;100.00;96351.19;5054879;28;20220;-72
2022/01/04 07:19:51;;;;;;;3.63;0.93;;;;;;;10.04;100.00;96351.41;5055064;28;20197;-72
2022/01/04 07:22:17;;;;;;;3.07;1.10;;;;;;;10.04;100.00;96348.75;5054752;28;20305;-72
2022/01/04 07:24:44;;;;;;;1.07;0.80;;;;;;;10.00;100.00;96348.47;5055600;28;20197;-73
2022/01/04 07:27:11;;;;;;;2.03;1.17;;;;;;;9.91;100.00;96331.44;5053176;28;20520;-72
2022/01/04 07:29:37;;;;;;;1.50;1.40;;;;;;;9.91;100.00;96343.94;5052698;28;20213;-73
2022/01/04 07:32:04;;;;;;;1.20;1.00;;;;;;;9.93;100.00;96331.19;5052775;28;20516;-72
2022/01/04 07:34:30;;;;;;;1.60;1.10;;;;;;;9.88;100.00;96334.63;5053204;28;20197;-72
2022/01/04 07:36:57;;;;;;;1.30;1.20;;;;;;;9.92;100.00;96330.38;5052843;28;20559;-72
2022/01/04 07:39:23;;;;;;;1.47;1.00;;;;;;;9.89;100.00;96327.44;5052811;28;20205;-72
2022/01/04 07:41:50;;;;;;;0.90;0.90;;;;;;;9.94;100.00;96322.16;5052901;28;20224;-72
2022/01/04 07:44:16;;;;;;;0.90;0.90;;;;;;;10.13;100.00;96320.69;5054806;28;20212;-72
2022/01/04 07:46:43;;;;;;;3.37;0.97;;;;;;;10.36;100.00;96315.78;5054540;28;20229;-72
2022/01/04 07:49:09;;;;;;;0.77;0.63;;;;;;;10.46;100.00;96320.34;5054862;28;20208;-71
2022/01/04 07:51:36;;;;;;;1.10;0.70;;;;;;;10.59;100.00;96304.72;5054597;28;20201;-71
2022/01/04 07:54:02;;;;;;;1.60;1.00;;;;;;;10.51;100.00;96301.75;5054451;28;20505;-71
2022/01/04 07:56:28;;;;;;;0.80;0.70;;;;;;;10.58;100.00;96297.00;5055722;28;20217;-71
2022/01/04 07:59:00;;;;;;;1.00;0.80;;;;;;;10.62;100.00;96285.59;5055911;28;20201;-71
2022/01/04 08:01:28;;;;;;;1.50;0.90;;;;;;;10.74;100.00;96286.16;5055698;28;20282;-71
2022/01/04 08:03:55;;;;;;;2.47;0.80;;;;;;;10.80;100.00;96268.34;5055596;28;20208;-71
2022/01/04 08:06:21;;;;;;;1.40;0.80;;;;;;;11.05;100.00;96260.41;5055657;28;20252;-71
2022/01/04 08:08:48;;;;;;;0.60;0.60;;;;;;;11.22;100.00;96254.84;5055745;28;20194;-71
2022/01/04 08:11:14;;;;;;;3.27;0.80;;;;;;;11.10;100.00;96257.75;5055663;28;20197;-71
2022/01/04 08:13:40;;;;;;;1.13;0.80;;;;;;;11.12;100.00;96271.56;5055750;28;20226;-71
2022/01/04 08:16:07;;;;;;;1.23;0.77;;;;;;;11.28;100.00;96275.84;5055390;28;20234;-71
2022/01/04 08:18:34;;;;;;;0.60;0.60;;;;;;;11.37;99.43;96279.59;5055612;28;20601;-71
2022/01/04 08:21:03;;;;;;;2.33;0.70;;;;;;;11.40;99.15;96273.72;5055972;28;20593;-71
2022/01/04 08:23:30;;;;;;;0.70;0.70;;;;;;;11.32;100.00;96259.09;5055720;28;20204;-71
2022/01/04 08:25:57;;;;;;;1.57;0.77;;;;;;;11.37;99.58;96250.31;5055741;28;20222;-71
2022/01/04 08:28:23;;;;;;;0.60;0.60;;;;;;;11.42;99.52;96255.63;5055780;28;20221;-71
2022/01/04 08:30:50;;;;;;;0.60;0.60;;;;;;;11.48;99.44;96269.75;5055420;28;20213;-72
2022/01/04 08:33:17;;;;;;;1.70;0.80;;;;;;;11.37;100.00;96268.94;5055770;28;20217;-71
2022/01/04 08:35:43;;;;;;;1.00;0.70;;;;;;;11.43;100.00;96262.53;5055050;28;20224;-70
2022/01/04 08:38:10;;;;;;;0.73;0.60;;;;;;;11.53;98.68;96262.53;5054990;28;20228;-70
2022/01/04 08:40:38;;;;;;;0.70;0.70;;;;;;;11.44;100.00;96260.69;5058472;28;20317;-71
2022/01/04 08:43:05;;;;;;;2.83;0.67;;;;;;;11.37;100.00;96263.63;5058709;28;20205;-71
2022/01/04 08:45:32;;;;;;;0.60;0.60;;;;;;;11.46;100.00;96239.91;5058773;28;20208;-71
2022/01/04 08:47:59;;;;;;;0.97;0.60;;;;;;;11.47;100.00;96226.34;5058739;28;20221;-71
2022/01/04 08:50:27;;;;;;;0.90;0.70;;;;;;;11.43;100.00;96225.28;5058913;28;20197;-71
2022/01/04 08:52:55;;;;;;;0.83;0.80;;;;;;;11.41;100.00;96222.13;5059444;28;20300;-71
2022/01/04 08:55:25;;;;;;;0.60;0.60;;;;;;;11.41;100.00;96231.94;5058626;28;20197;-71
2022/01/04 08:57:52;;;;;;;0.70;0.70;;;;;;;11.45;100.00;96230.34;5058597;28;20181;-71
2022/01/04 09:00:19;;;;;;;0.73;0.60;;;;;;;11.51;99.51;96230.06;5058655;28;20190;-71
2022/01/04 09:02:45;;;;;;;1.90;0.90;;;;;;;11.68;97.38;96222.63;5058399;28;20208;-71
2022/01/04 09:05:12;;;;;;;2.53;0.60;;;;;;;11.78;95.19;96217.28;5058468;28;20197;-71
2022/01/04 09:07:39;;;;;;;2.03;0.77;;;;;;;11.78;95.26;96227.94;5058483;28;20225;-71
2022/01/04 09:10:06;;;;;;;1.87;0.63;;;;;;;11.71;97.25;96231.94;5058441;28;20190;-70
2022/01/04 09:12:42;;;;;;;0.87;0.87;;;;;;;11.78;95.47;96225.25;5058376;28;20197;-71
2022/01/04 09:15:29;;;;;;;0.80;0.70;;;;;;;11.66;97.46;96216.00;5058024;28;20585;-71
2022/01/04 09:20:45;;;;;;;0.83;0.80;;;;;;;11.63;98.10;96222.66;5058329;28;20176;-71
2022/01/04 09:23:15;;;;;;;1.17;0.70;;;;;;;11.66;97.83;96205.34;5058434;28;20539;-71
2022/01/04 09:25:42;;;;;;;2.50;0.80;;;;;;;11.57;98.82;96212.25;5058288;28;20648;-71
2022/01/04 09:28:09;;;;;;;0.67;0.67;;;;;;;11.58;99.08;96219.94;5058092;28;20244;-70
2022/01/04 09:30:36;;;;;;;1.77;0.80;;;;;;;11.57;98.50;96206.94;5058256;28;20189;-70
2022/01/04 09:33:02;;;;;;;2.23;0.80;;;;;;;11.65;96.39;96193.88;5058279;28;20201;-71
2022/01/04 09:35:30;;;;;;;0.73;0.73;;;;;;;11.62;97.95;96196.31;5057969;28;20224;-71
2022/01/04 09:37:56;;;;;;;1.77;0.90;;;;;;;11.56;98.12;96189.34;5057612;28;20296;-71
2022/01/04 09:40:23;;;;;;;1.67;0.83;;;;;;;11.53;98.57;96179.25;5057949;28;20247;-71
2022/01/04 09:42:51;;;;;;;1.60;0.67;;;;;;;11.49;99.26;96156.91;5057697;28;20217;-71
2022/01/04 09:45:17;;;;;;;0.70;0.70;;;;;;;11.57;97.82;96180.31;5057496;28;20186;-71
2022/01/04 09:47:44;;;;;;;1.13;0.83;;;;;;;11.54;98.61;96173.66;5057945;28;20540;-71
2022/01/04 09:50:10;;;;;;;0.77;0.77;;;;;;;11.59;98.14;96186.97;5057550;28;20189;-71
2022/01/04 09:52:46;;;;;;;1.03;0.90;;;;;;;11.60;97.93;96201.88;5057253;28;20189;-71
2022/01/04 09:55:14;;;;;;;2.83;0.93;;;;;;;11.51;100.00;96197.34;5057378;28;20296;-71
2022/01/04 09:57:43;;;;;;;1.33;1.00;;;;;;;11.53;99.86;96179.25;5057445;28;20549;-70
2022/01/04 10:00:14;;;;;;;0.77;0.73;;;;;;;11.63;98.40;96198.69;5057510;28;20511;-70
2022/01/04 10:02:41;;;;;;;0.67;0.63;;;;;;;11.67;97.80;96196.28;5057572;28;20189;-71
2022/01/04 10:05:18;;;;;;;1.30;0.73;;;;;;;11.64;98.67;96184.31;5057341;28;20563;-71
2022/01/04 10:07:45;;;;;;;1.33;0.80;;;;;;;11.73;96.78;96190.69;5057913;28;20213;-71
2022/01/04 10:10:14;;;;;;;1.97;1.10;;;;;;;11.66;98.86;96179.50;5057355;28;20194;-71
2022/01/04 10:12:59;;;;;;;2.27;0.90;;;;;;;11.72;97.58;96173.13;5057078;28;20193;-71
2022/01/04 10:15:41;;;;;;;0.90;0.90;;;;;;;11.75;97.13;96172.56;5057161;28;20203;-71
2022/01/04 10:18:13;;;;;;;1.47;0.90;;;;;;;11.71;97.33;96170.72;5057189;28;20185;-71
2022/01/04 10:20:46;;;;;;;1.07;0.90;;;;;;;11.76;97.44;96178.69;5056954;28;20573;-71
2022/01/04 10:23:22;;;;;;;1.53;1.20;;;;;;;11.69;98.73;96157.69;5056613;28;20584;-71
2022/01/04 10:25:50;;;;;;;1.37;0.80;;;;;;;11.72;98.14;96156.34;5056643;28;20285;-71
2022/01/04 10:28:34;;;;;;;1.73;0.90;;;;;;;11.71;97.39;96147.53;5056915;28;20210;-71
2022/01/04 10:31:09;;;;;;;1.30;0.77;;;;;;;11.89;95.34;96162.13;5057110;28;20276;-71
2022/01/04 10:33:36;;;;;;;1.33;0.90;;;;;;;11.88;96.00;96148.03;5056916;28;20279;-70
2022/01/04 10:36:11;;;;;;;1.13;1.00;;;;;;;11.89;95.37;96132.84;5056786;28;20220;-71
2022/01/04 10:38:42;;;;;;;2.63;0.97;;;;;;;11.96;94.58;96130.66;5056858;28;20638;-71
2022/01/04 10:41:11;;;;;;;0.90;0.63;;;;;;;11.99;94.71;96136.28;5056519;28;20213;-71
2022/01/04 10:43:43;;;;;;;1.77;1.00;;;;;;;11.90;96.83;96119.28;5056293;28;20192;-71
2022/01/04 10:46:11;;;;;;;1.23;0.90;;;;;;;11.93;96.97;96128.56;5056584;28;20229;-71
2022/01/04 10:48:41;;;;;;;1.20;1.00;;;;;;;11.91;96.45;96134.16;5056418;28;20534;-71
2022/01/04 10:51:30;;;;;;;1.90;1.00;;;;;;;11.86;97.42;96139.53;5056199;28;20212;-71
2022/01/04 10:54:01;;;;;;;1.30;0.77;;;;;;;11.89;95.38;96132.84;5056145;28;20500;-71
2022/01/04 10:56:31;;;;;;;0.80;0.80;;;;;;;11.85;96.67;96145.88;5056055;28;20221;-71
2022/01/04 10:58:58;;;;;;;1.40;0.83;;;;;;;11.84;96.41;96138.97;5056812;28;20190;-71
2022/01/04 11:01:27;;;;;;;1.23;1.00;;;;;;;11.80;97.22;96131.81;5056177;28;20624;-71
2022/01/04 11:04:00;;;;;;;1.10;0.97;;;;;;;11.84;96.81;96125.66;5055948;28;20609;-71
2022/01/04 11:06:36;;;;;;;2.33;1.00;;;;;;;11.93;95.05;96128.56;5056092;28;20221;-71
2022/01/04 11:09:04;;;;;;;1.40;1.00;;;;;;;11.95;94.68;96129.91;5056167;28;20221;-71
2022/01/04 11:11:31;;;;;;;1.00;0.90;;;;;;;11.93;95.62;96120.59;5056148;28;20190;-71
2022/01/04 11:13:58;;;;;;;1.37;0.90;;;;;;;12.01;94.52;96131.44;5055675;28;20189;-71
2022/01/04 11:16:26;;;;;;;1.67;1.00;;;;;;;11.98;93.97;96142.66;5056003;28;20224;-71
2022/01/04 11:18:55;;;;;;;1.60;0.90;;;;;;;12.02;95.53;96135.69;5056173;28;20181;-71
2022/01/04 11:21:25;;;;;;;1.30;0.93;;;;;;;12.05;93.74;96145.00;5055895;28;20199;-71
2022/01/04 11:23:55;;;;;;;2.47;1.03;;;;;;;11.99;94.48;96138.94;5055937;28;20229;-71
2022/01/04 11:26:22;;;;;;;1.57;0.80;;;;;;;12.00;93.94;96135.19;5055745;28;20222;-71
2022/01/04 11:28:50;;;;;;;1.37;1.00;;;;;;;11.91;95.63;96131.50;5055602;28;20209;-71
2022/01/04 11:31:26;;;;;;;2.07;1.13;;;;;;;11.88;94.89;96129.38;5055984;28;20209;-71
2022/01/04 11:34:10;;;;;;;1.90;1.10;;;;;;;11.88;94.97;96128.56;5056051;28;20193;-71
2022/01/04 11:36:45;;;;;;;1.60;1.20;;;;;;;11.79;97.33;96123.03;5055487;28;20217;-71
2022/01/04 11:39:27;;;;;;;1.40;1.00;;;;;;;11.78;96.56;96115.31;5055870;28;20196;-71
2022/01/04 11:41:56;;;;;;;1.27;1.17;;;;;;;11.82;95.06;96117.16;5055316;28;20630;-71
2022/01/04 11:44:26;;;;;;;2.60;1.20;;;;;;;11.85;94.48;96113.16;5055776;28;20205;-71
2022/01/04 11:46:59;;;;;;;2.20;1.20;;;;;;;11.85;94.84;96116.59;5055901;28;20221;-71